Time;durP1;ratioP1;P1;durP2;ratioP2;P2;SDS_P1;SDS_P2;PMS_P1;PMS_P2;Temp;Humidity;BMP_temperature;BMP_pressure;BME280_temperature;BME280_humidity;BME280_pressure;Samples;Min_cycle;Max_cycle;Signal;HPM_P1;HPM_P2
2023/10/18 00:01:57;;;;;;;16.37;13.43;;;21.40;55.70;;;;;;5049530;28;20804;-66
2023/10/18 00:04:23;;;;;;;19.17;14.30;;;21.40;55.70;;;;;;5033285;28;20550;-65
2023/10/18 00:06:50;;;;;;;17.77;13.60;;;21.40;55.80;;;;;;5036832;28;20424;-69
2023/10/18 00:12:20;;;;;;;19.13;15.77;;;21.40;55.70;;;;;;5030745;28;20501;-69
2023/10/18 00:14:46;;;;;;;18.10;14.13;;;21.40;55.70;;;;;;5030678;28;20496;-68
2023/10/18 00:17:13;;;;;;;17.07;15.20;;;21.40;55.70;;;;;;5006915;28;20435;-68
2023/10/18 00:19:40;;;;;;;17.70;13.90;;;21.40;55.70;;;;;;5010557;28;20698;-69
2023/10/18 00:22:09;;;;;;;17.07;13.10;;;21.40;55.70;;;;;;5024412;28;20457;-68
2023/10/18 00:24:35;;;;;;;16.50;13.60;;;21.40;55.70;;;;;;5030319;28;20495;-68
2023/10/18 00:27:00;;;;;;;17.43;14.30;;;21.40;55.70;;;;;;5029477;28;20835;-68
2023/10/18 00:29:26;;;;;;;18.30;14.30;;;21.40;55.70;;;;;;5030380;28;20176;-68
2023/10/18 00:31:51;;;;;;;16.30;13.10;;;21.40;55.70;;;;;;5030395;28;20246;-68
2023/10/18 00:34:18;;;;;;;15.47;12.87;;;21.30;55.70;;;;;;5030254;28;20188;-68
2023/10/18 00:36:43;;;;;;;18.07;14.10;;;21.30;55.70;;;;;;5028014;28;20180;-67
2023/10/18 00:39:21;;;;;;;18.40;14.90;;;21.30;55.60;;;;;;5026108;28;20430;-68
2023/10/18 00:41:53;;;;;;;17.97;13.30;;;21.30;55.70;;;;;;5030268;28;20167;-66
2023/10/18 00:44:21;;;;;;;16.03;12.73;;;21.30;55.60;;;;;;5052429;28;21005;-68
2023/10/18 00:46:48;;;;;;;16.07;12.40;;;21.30;55.60;;;;;;5050158;28;20406;-68
2023/10/18 00:49:14;;;;;;;17.33;13.20;;;21.30;55.60;;;;;;5032504;28;20425;-67
2023/10/18 00:51:43;;;;;;;15.70;12.33;;;21.30;55.60;;;;;;5032437;28;20402;-68
2023/10/18 00:54:11;;;;;;;17.80;14.60;;;21.30;55.60;;;;;;5032265;28;20188;-67
2023/10/18 00:56:40;;;;;;;16.33;12.87;;;21.30;55.70;;;;;;5032519;28;20426;-68
2023/10/18 00:59:21;;;;;;;15.30;11.83;;;21.30;55.60;;;;;;5052191;28;20525;-68
2023/10/18 01:01:47;;;;;;;14.03;11.67;;;21.30;55.70;;;;;;5052230;28;20459;-69
2023/10/18 01:04:12;;;;;;;17.77;12.97;;;21.30;55.70;;;;;;5052040;28;20452;-67
2023/10/18 01:06:45;;;;;;;14.07;11.33;;;21.30;55.60;;;;;;5051602;28;20843;-68
2023/10/18 01:09:16;;;;;;;14.03;11.33;;;21.30;55.60;;;;;;5035717;28;20174;-68
2023/10/18 01:11:42;;;;;;;16.47;13.27;;;21.30;55.60;;;;;;5052077;28;20884;-67
2023/10/18 01:14:07;;;;;;;15.43;11.80;;;21.30;55.70;;;;;;5051868;28;20983;-69
2023/10/18 01:16:36;;;;;;;15.97;11.70;;;21.30;55.70;;;;;;5051797;28;20402;-67
2023/10/18 01:19:08;;;;;;;13.20;11.00;;;21.30;55.70;;;;;;5043965;28;20567;-68
2023/10/18 01:21:34;;;;;;;16.73;13.07;;;21.30;55.70;;;;;;5050836;28;20818;-68
2023/10/18 01:24:00;;;;;;;15.00;12.10;;;21.30;55.70;;;;;;5051657;28;20425;-69
2023/10/18 01:26:37;;;;;;;14.10;12.33;;;21.30;55.70;;;;;;5052189;28;20193;-68
2023/10/18 01:29:08;;;;;;;15.13;11.40;;;21.30;55.60;;;;;;5051005;28;20432;-68
2023/10/18 01:31:33;;;;;;;13.63;11.30;;;21.30;55.60;;;;;;5051630;28;20393;-68
2023/10/18 01:33:59;;;;;;;14.43;10.87;;;21.30;55.60;;;;;;5033854;28;20449;-68
2023/10/18 01:36:31;;;;;;;17.20;12.57;;;21.30;55.60;;;;;;5031643;28;20651;-67
2023/10/18 01:38:57;;;;;;;16.07;12.70;;;21.20;55.60;;;;;;5049493;28;20236;-68
2023/10/18 01:41:28;;;;;;;12.73;11.17;;;21.30;55.70;;;;;;5049967;28;20456;-68
2023/10/18 01:44:05;;;;;;;14.50;11.60;;;21.20;55.50;;;;;;5051262;28;20565;-68
2023/10/18 01:46:31;;;;;;;12.93;10.20;;;21.20;55.50;;;;;;5051308;28;20400;-67
2023/10/18 01:48:57;;;;;;;15.30;11.80;;;21.20;55.60;;;;;;5033502;28;20422;-69
2023/10/18 01:51:23;;;;;;;15.47;11.13;;;21.20;55.60;;;;;;5035241;28;20561;-68
2023/10/18 01:53:50;;;;;;;14.30;11.10;;;21.20;55.50;;;;;;5051164;28;20417;-68
2023/10/18 01:56:19;;;;;;;14.23;10.73;;;21.20;55.60;;;;;;5051136;28;20167;-68
2023/10/18 01:58:46;;;;;;;14.50;11.00;;;21.20;55.60;;;;;;5035302;28;20437;-69
2023/10/18 02:01:13;;;;;;;13.83;10.77;;;21.20;55.60;;;;;;5031052;28;21030;-68
2023/10/18 02:03:41;;;;;;;13.97;9.97;;;21.20;55.60;;;;;;5029785;28;20418;-67
2023/10/18 02:06:07;;;;;;;14.57;10.90;;;21.20;55.60;;;;;;5031331;28;20418;-68
2023/10/18 02:08:36;;;;;;;13.20;11.20;;;21.20;55.60;;;;;;5032194;28;20422;-69
2023/10/18 02:11:07;;;;;;;14.57;11.20;;;21.20;55.60;;;;;;5031035;28;20425;-67
2023/10/18 02:13:33;;;;;;;14.80;11.10;;;21.20;55.60;;;;;;5030935;28;20417;-68
2023/10/18 02:15:58;;;;;;;12.33;10.50;;;21.20;55.60;;;;;;5030946;28;20406;-69
2023/10/18 02:18:26;;;;;;;12.47;10.07;;;21.20;55.60;;;;;;5042865;28;20670;-69
2023/10/18 02:20:52;;;;;;;11.43;10.17;;;21.20;55.60;;;;;;5043720;28;20652;-67
2023/10/18 02:23:21;;;;;;;13.00;11.33;;;21.20;55.60;;;;;;5030919;28;20414;-68
2023/10/18 02:25:48;;;;;;;14.60;10.83;;;21.20;55.60;;;;;;5030771;28;20426;-67
2023/10/18 02:28:25;;;;;;;13.40;10.70;;;21.20;55.70;;;;;;5039943;28;20432;-68
2023/10/18 02:33:48;;;;;;;12.20;10.27;;;21.20;55.60;;;;;;5045726;28;20417;-68
2023/10/18 02:36:21;;;;;;;13.30;11.10;;;21.20;55.60;;;;;;5050696;28;20475;-68
2023/10/18 02:38:49;;;;;;;11.67;10.03;;;21.20;55.70;;;;;;5035343;28;20414;-69
2023/10/18 02:41:15;;;;;;;16.13;11.20;;;21.20;55.60;;;;;;5030588;28;20458;-68
2023/10/18 02:43:51;;;;;;;12.97;9.63;;;21.20;55.60;;;;;;5030562;28;20413;-68
2023/10/18 02:46:23;;;;;;;12.47;10.07;;;21.20;55.60;;;;;;5030656;28;21123;-69
2023/10/18 02:48:50;;;;;;;12.50;10.50;;;21.20;55.60;;;;;;5045521;28;20414;-67
2023/10/18 02:51:18;;;;;;;12.97;10.90;;;21.20;55.60;;;;;;5050533;28;20417;-68
2023/10/18 02:54:32;;;;;;;14.20;10.77;;;21.20;55.60;;;;;;5050503;28;20752;-69
2023/10/18 02:56:51;;;;;;;14.67;10.80;;;21.20;55.60;;;;;;5049190;28;20447;-68
2023/10/18 02:59:24;;;;;;;12.37;9.50;;;21.20;55.60;;;;;;5049862;28;20988;-67
2023/10/18 03:01:53;;;;;;;12.70;10.50;;;21.20;55.60;;;;;;5049195;28;20837;-68
2023/10/18 03:04:22;;;;;;;11.57;9.60;;;21.20;55.60;;;;;;5043245;28;20440;-67
2023/10/18 03:06:51;;;;;;;11.50;9.40;;;21.20;55.70;;;;;;5029571;28;20981;-69
2023/10/18 03:12:02;;;;;;;12.13;9.40;;;21.20;55.60;;;;;;5031961;28;20386;-69
2023/10/18 03:14:41;;;;;;;12.40;9.73;;;21.20;55.60;;;;;;5050183;28;20512;-68
2023/10/18 03:17:23;;;;;;;12.20;9.07;;;21.20;55.70;;;;;;5048520;28;20424;-68
2023/10/18 03:19:50;;;;;;;11.00;9.90;;;21.20;55.60;;;;;;5040661;28;20477;-68
2023/10/18 03:22:19;;;;;;;11.57;8.90;;;21.20;55.60;;;;;;5034467;28;20574;-68
2023/10/18 03:24:54;;;;;;;10.60;9.50;;;21.20;55.60;;;;;;5030115;28;20430;-68
2023/10/18 03:27:20;;;;;;;10.50;8.83;;;21.20;55.60;;;;;;5035965;28;20456;-67
2023/10/18 03:29:46;;;;;;;11.93;8.77;;;21.20;55.70;;;;;;5049999;28;20412;-68
2023/10/18 03:32:19;;;;;;;12.53;10.00;;;21.20;55.60;;;;;;5050035;28;20409;-67
2023/10/18 03:34:47;;;;;;;10.57;8.63;;;21.20;55.60;;;;;;5049803;28;20191;-68
2023/10/18 03:37:24;;;;;;;11.60;9.43;;;21.20;55.60;;;;;;5044475;28;20429;-68
2023/10/18 03:39:55;;;;;;;10.70;9.07;;;21.20;55.60;;;;;;5030178;28;20445;-69
2023/10/18 03:42:33;;;;;;;12.60;9.80;;;21.20;55.60;;;;;;5030388;28;20399;-67
2023/10/18 03:45:11;;;;;;;11.77;10.10;;;21.20;55.60;;;;;;5033302;28;20976;-68
2023/10/18 03:47:38;;;;;;;13.20;9.70;;;21.20;55.60;;;;;;5034809;28;20460;-68
2023/10/18 03:50:15;;;;;;;12.00;9.37;;;21.20;55.70;;;;;;5033891;28;20418;-69
2023/10/18 03:52:41;;;;;;;12.50;9.40;;;21.20;55.60;;;;;;5032267;28;20410;-68
2023/10/18 03:55:17;;;;;;;11.20;10.00;;;21.20;55.60;;;;;;5033459;28;20434;-67
2023/10/18 03:57:43;;;;;;;10.80;9.60;;;21.20;55.70;;;;;;5042264;28;20421;-68
2023/10/18 04:00:28;;;;;;;10.60;8.53;;;21.20;55.60;;;;;;5053171;28;20456;-67
2023/10/18 04:03:07;;;;;;;10.83;9.70;;;21.20;55.60;;;;;;5053282;28;20386;-68
2023/10/18 04:05:45;;;;;;;11.67;8.70;;;21.20;55.70;;;;;;5053438;28;20425;-69
2023/10/18 04:08:18;;;;;;;10.10;9.10;;;21.10;55.60;;;;;;5040415;28;20472;-69
2023/10/18 04:10:46;;;;;;;12.43;9.20;;;21.10;55.60;;;;;;5033480;28;20402;-68
2023/10/18 04:13:12;;;;;;;11.43;9.17;;;21.10;55.60;;;;;;5033233;28;20425;-68
2023/10/18 04:15:46;;;;;;;11.63;8.97;;;21.10;55.60;;;;;;5033042;28;20509;-68
2023/10/18 04:18:13;;;;;;;10.93;9.73;;;21.10;55.60;;;;;;5045239;28;20491;-68
2023/10/18 04:20:43;;;;;;;11.57;9.00;;;21.10;55.60;;;;;;5052852;28;20449;-68
2023/10/18 04:23:15;;;;;;;10.90;8.93;;;21.10;55.60;;;;;;5052923;28;20904;-67
2023/10/18 04:26:01;;;;;;;10.53;8.50;;;21.10;55.60;;;;;;5052859;28;20416;-69
2023/10/18 04:28:31;;;;;;;9.97;8.50;;;21.10;55.60;;;;;;5038178;28;20437;-68
2023/10/18 04:31:00;;;;;;;8.97;7.53;;;21.10;55.60;;;;;;5032795;28;20422;-68
2023/10/18 04:33:36;;;;;;;8.80;7.33;;;21.10;55.50;;;;;;5032674;28;20427;-68
2023/10/18 04:36:12;;;;;;;8.80;7.90;;;21.10;55.20;;;;;;5032757;28;20393;-66
2023/10/18 04:38:47;;;;;;;8.03;6.57;;;21.10;54.50;;;;;;5043349;28;20414;-68
2023/10/18 04:41:23;;;;;;;9.50;7.50;;;21.10;53.80;;;;;;5033986;28;20854;-68
2023/10/18 04:43:51;;;;;;;9.37;7.20;;;21.00;53.50;;;;;;5052484;28;20393;-68
2023/10/18 04:46:22;;;;;;;8.30;7.03;;;21.00;53.10;;;;;;5052983;28;20487;-68
2023/10/18 04:54:18;;;;;;;8.93;7.80;;;21.00;53.60;;;;;;5033404;28;20446;-68
2023/10/18 04:56:45;;;;;;;9.20;8.00;;;21.00;54.00;;;;;;5042600;28;21291;-68
2023/10/18 05:04:24;;;;;;;8.67;6.97;;;21.00;54.50;;;;;;5052128;28;20421;-67
2023/10/18 05:06:55;;;;;;;9.57;8.47;;;21.00;54.60;;;;;;5050394;28;20499;-66
2023/10/18 05:09:30;;;;;;;9.23;7.87;;;21.00;54.60;;;;;;5047184;28;20991;-67
2023/10/18 05:12:16;;;;;;;9.20;6.53;;;21.00;54.70;;;;;;5052034;28;20468;-68
2023/10/18 05:17:17;;;;;;;11.37;7.07;;;21.00;54.80;;;;;;5031632;28;20394;-68
2023/10/18 05:19:44;;;;;;;9.00;7.80;;;21.00;54.90;;;;;;5031695;28;20453;-67
2023/10/18 05:22:20;;;;;;;9.10;7.07;;;21.00;54.80;;;;;;5031564;28;20414;-68
2023/10/18 05:24:54;;;;;;;9.67;7.63;;;21.00;54.90;;;;;;5031845;28;20945;-68
2023/10/18 05:27:27;;;;;;;9.10;6.73;;;21.00;54.90;;;;;;5031739;28;20533;-67
2023/10/18 05:29:59;;;;;;;8.53;6.57;;;21.00;54.90;;;;;;5031695;28;20879;-69
2023/10/18 05:35:21;;;;;;;9.30;7.17;;;21.00;55.00;;;;;;5031869;28;20430;-67
2023/10/18 05:37:58;;;;;;;7.40;6.17;;;21.00;55.00;;;;;;5031548;28;20482;-69
2023/10/18 05:43:07;;;;;;;8.70;7.60;;;21.10;55.10;;;;;;5031778;28;20425;-69
2023/10/18 05:45:33;;;;;;;7.57;6.07;;;21.10;55.10;;;;;;5031700;28;20433;-66
2023/10/18 05:48:03;;;;;;;8.23;6.23;;;21.10;55.10;;;;;;5031391;28;20460;-68
2023/10/18 05:50:34;;;;;;;7.70;6.40;;;21.10;55.10;;;;;;5031255;28;20414;-69
2023/10/18 05:53:02;;;;;;;7.70;5.93;;;21.10;55.10;;;;;;5031437;28;20418;-66
2023/10/18 05:55:30;;;;;;;8.47;6.93;;;21.10;55.00;;;;;;5031292;28;20434;-68
2023/10/18 05:57:56;;;;;;;8.40;6.60;;;21.10;55.00;;;;;;5031510;28;20460;-68
2023/10/18 06:00:22;;;;;;;8.27;6.43;;;21.10;55.00;;;;;;5031124;28;21048;-68
2023/10/18 06:02:52;;;;;;;8.93;6.23;;;21.10;55.00;;;;;;5031230;28;20501;-67
2023/10/18 06:05:19;;;;;;;8.03;6.57;;;21.10;55.00;;;;;;5031059;28;20191;-68
2023/10/18 06:07:46;;;;;;;7.67;6.53;;;21.10;55.00;;;;;;5030984;28;20414;-67
2023/10/18 06:10:17;;;;;;;8.00;6.33;;;21.10;55.00;;;;;;5031420;28;20442;-66
2023/10/18 06:12:55;;;;;;;7.00;5.80;;;21.10;55.00;;;;;;5029816;28;20426;-68
2023/10/18 06:15:34;;;;;;;7.10;6.40;;;21.10;55.00;;;;;;5030931;28;20807;-69
2023/10/18 06:18:05;;;;;;;6.33;5.73;;;21.10;55.00;;;;;;5030813;28;20447;-67
2023/10/18 06:20:34;;;;;;;8.20;5.83;;;21.20;55.10;;;;;;5030889;28;20957;-67
2023/10/18 06:23:09;;;;;;;7.67;6.43;;;21.20;55.10;;;;;;5030930;28;20434;-68
2023/10/18 06:25:38;;;;;;;7.23;5.70;;;21.20;55.10;;;;;;5030949;28;20417;-67
2023/10/18 06:28:07;;;;;;;6.20;5.57;;;21.20;55.10;;;;;;5030892;28;20414;-68
2023/10/18 06:30:39;;;;;;;7.17;5.70;;;21.20;55.10;;;;;;5030910;28;20453;-67
2023/10/18 06:33:07;;;;;;;7.63;5.80;;;21.20;55.10;;;;;;5031209;28;20425;-69
2023/10/18 06:35:58;;;;;;;7.50;5.87;;;21.20;55.10;;;;;;5030534;28;20462;-66
2023/10/18 06:38:24;;;;;;;6.33;5.50;;;21.20;55.10;;;;;;5030836;28;20943;-67
2023/10/18 06:41:00;;;;;;;8.47;5.97;;;21.20;55.20;;;;;;5030995;28;20450;-67
2023/10/18 06:43:27;;;;;;;9.13;5.97;;;21.20;55.20;;;;;;5030719;28;20448;-67
2023/10/18 06:45:53;;;;;;;7.20;6.17;;;21.20;55.20;;;;;;5030676;28;20855;-65
2023/10/18 06:48:28;;;;;;;7.70;5.50;;;21.20;55.20;;;;;;5030657;28;20409;-67
2023/10/18 06:50:54;;;;;;;7.83;5.80;;;21.20;55.20;;;;;;5030943;28;20485;-66
2023/10/18 06:53:20;;;;;;;6.03;5.07;;;21.20;55.20;;;;;;5030622;28;20517;-66
2023/10/18 06:55:55;;;;;;;5.97;5.30;;;21.20;55.20;;;;;;5030768;28;20199;-66
2023/10/18 07:00:53;;;;;;;6.47;5.80;;;21.20;55.20;;;;;;5030767;28;20449;-66
2023/10/18 07:03:24;;;;;;;7.77;6.67;;;21.20;55.20;;;;;;5030643;28;20429;-67
2023/10/18 07:05:52;;;;;;;7.10;6.20;;;21.20;55.20;;;;;;5030486;28;20477;-65
2023/10/18 07:08:25;;;;;;;6.97;5.87;;;21.20;55.20;;;;;;5030832;28;20855;-67
2023/10/18 07:10:54;;;;;;;6.03;5.30;;;21.20;55.20;;;;;;5030756;28;20427;-68
2023/10/18 07:13:33;;;;;;;6.30;5.70;;;21.20;55.20;;;;;;5030414;28;20410;-67
2023/10/18 07:16:06;;;;;;;6.30;5.53;;;21.20;55.20;;;;;;5030566;28;20394;-66
2023/10/18 07:18:35;;;;;;;8.23;5.70;;;21.20;55.30;;;;;;5031373;28;20426;-67
2023/10/18 07:21:09;;;;;;;7.57;6.30;;;21.20;55.30;;;;;;5034119;28;20454;-67
2023/10/18 07:23:37;;;;;;;11.23;7.90;;;21.20;55.30;;;;;;5034129;28;20774;-67
2023/10/18 07:26:08;;;;;;;6.63;5.83;;;21.20;55.30;;;;;;5034265;28;20398;-67
2023/10/18 07:28:37;;;;;;;7.00;5.80;;;21.20;55.30;;;;;;5034045;28;20421;-67
2023/10/18 07:31:09;;;;;;;9.30;6.17;;;21.20;55.30;;;;;;5034332;28;20933;-67
2023/10/18 07:33:41;;;;;;;9.37;5.90;;;21.20;55.30;;;;;;5033956;28;20401;-67
2023/10/18 07:36:11;;;;;;;10.80;6.90;;;21.20;55.30;;;;;;5034108;28;20940;-67
2023/10/18 07:38:39;;;;;;;9.73;5.47;;;21.20;55.30;;;;;;5033867;28;20438;-66
2023/10/18 07:41:07;;;;;;;9.17;6.30;;;21.20;55.40;;;;;;5033741;28;20446;-66
2023/10/18 07:43:34;;;;;;;8.70;6.97;;;21.20;55.40;;;;;;5033752;28;20407;-65
2023/10/18 07:46:05;;;;;;;12.13;6.37;;;21.20;55.40;;;;;;5033752;28;20449;-66
2023/10/18 07:48:31;;;;;;;10.20;6.30;;;21.20;55.40;;;;;;5033938;28;20418;-66
2023/10/18 07:50:58;;;;;;;10.30;7.10;;;21.20;55.40;;;;;;5033629;28;20421;-66
2023/10/18 07:53:24;;;;;;;9.70;6.10;;;21.20;55.50;;;;;;5033571;28;20411;-66
2023/10/18 07:55:56;;;;;;;10.60;5.93;;;21.20;55.40;;;;;;5033772;28;20433;-66
2023/10/18 07:58:23;;;;;;;7.60;6.40;;;21.20;55.50;;;;;;5033654;28;20477;-66
2023/10/18 08:01:12;;;;;;;8.90;5.67;;;21.20;55.50;;;;;;5033444;28;20996;-67
2023/10/18 08:03:38;;;;;;;8.20;6.07;;;21.20;55.50;;;;;;5033394;28;20953;-67
2023/10/18 08:06:08;;;;;;;8.70;5.90;;;21.20;55.50;;;;;;5033302;28;20493;-67
2023/10/18 08:08:36;;;;;;;10.83;7.00;;;21.20;55.60;;;;;;5033415;28;20632;-65
2023/10/18 08:11:04;;;;;;;10.20;5.80;;;21.20;55.60;;;;;;5033337;28;20422;-66
2023/10/18 08:13:29;;;;;;;10.33;6.67;;;21.20;55.60;;;;;;5033583;28;20414;-65
2023/10/18 08:15:56;;;;;;;7.00;5.80;;;21.20;55.60;;;;;;5033244;28;20434;-67
2023/10/18 08:18:44;;;;;;;7.20;6.50;;;21.20;55.60;;;;;;5033045;28;20168;-67
2023/10/18 08:21:25;;;;;;;7.43;6.30;;;21.20;55.60;;;;;;5033720;28;21025;-67
2023/10/18 08:23:55;;;;;;;10.27;6.60;;;21.20;55.60;;;;;;5033724;28;20422;-65
2023/10/18 08:26:22;;;;;;;6.97;5.57;;;21.20;55.60;;;;;;5034257;28;20406;-66
2023/10/18 08:28:48;;;;;;;9.30;6.30;;;21.20;55.60;;;;;;5033670;28;20415;-66
2023/10/18 08:31:34;;;;;;;9.90;6.17;;;21.20;55.70;;;;;;5033433;28;20410;-68
2023/10/18 08:34:05;;;;;;;11.03;6.30;;;21.20;55.60;;;;;;5033309;28;21010;-67
2023/10/18 08:36:34;;;;;;;9.70;6.53;;;21.20;55.60;;;;;;5033181;28;20399;-67
2023/10/18 08:39:03;;;;;;;7.67;5.63;;;21.20;55.60;;;;;;5033885;28;20406;-66
2023/10/18 08:41:33;;;;;;;10.17;5.90;;;21.20;55.60;;;;;;5033581;28;20480;-67
2023/10/18 08:44:08;;;;;;;8.27;6.37;;;21.20;55.50;;;;;;5033272;28;20426;-68
2023/10/18 08:46:41;;;;;;;9.37;6.30;;;21.20;55.50;;;;;;5033208;28;20393;-67
2023/10/18 08:49:09;;;;;;;5.97;5.37;;;21.20;55.50;;;;;;5033453;28;20502;-68
2023/10/18 08:51:37;;;;;;;8.07;6.03;;;21.20;55.50;;;;;;5033730;28;21007;-65
2023/10/18 08:54:09;;;;;;;8.07;5.97;;;21.20;55.50;;;;;;5032760;28;20422;-66
2023/10/18 08:56:35;;;;;;;7.63;5.80;;;21.20;55.40;;;;;;5033426;28;20391;-67
2023/10/18 08:59:11;;;;;;;7.37;6.57;;;21.20;55.50;;;;;;5033373;28;20464;-66
2023/10/18 09:01:36;;;;;;;7.20;5.23;;;21.20;55.40;;;;;;5032530;28;20191;-68
2023/10/18 09:04:02;;;;;;;8.30;5.60;;;21.20;55.50;;;;;;5032901;28;20878;-68
2023/10/18 09:06:32;;;;;;;10.20;6.60;;;21.20;55.50;;;;;;5033206;28;20266;-67
2023/10/18 09:09:35;;;;;;;8.50;5.53;;;21.20;55.50;;;;;;5032686;28;20179;-67
2023/10/18 09:11:51;;;;;;;7.67;5.63;;;21.20;55.50;;;;;;5031979;28;20824;-66
2023/10/18 09:14:17;;;;;;;8.10;5.57;;;21.20;55.50;;;;;;5033074;28;20800;-66
2023/10/18 09:16:46;;;;;;;10.77;6.73;;;21.20;55.50;;;;;;5033285;28;20410;-67
2023/10/18 09:19:12;;;;;;;6.00;5.40;;;21.20;55.50;;;;;;5032674;28;20183;-66
2023/10/18 09:21:56;;;;;;;6.77;5.60;;;21.20;55.60;;;;;;5032687;28;20657;-68
2023/10/18 09:24:30;;;;;;;9.33;6.07;;;21.20;55.60;;;;;;5033047;28;20430;-67
2023/10/18 09:26:58;;;;;;;8.87;5.63;;;21.20;55.60;;;;;;5032862;28;20398;-65
2023/10/18 09:29:26;;;;;;;8.10;5.83;;;21.20;55.60;;;;;;5032720;28;20586;-67
2023/10/18 09:32:12;;;;;;;9.43;5.70;;;21.20;55.60;;;;;;5032312;28;20438;-67
2023/10/18 09:34:38;;;;;;;7.60;5.00;;;21.20;55.60;;;;;;5032859;28;20515;-65
2023/10/18 09:37:04;;;;;;;9.97;6.60;;;21.20;55.60;;;;;;5032546;28;20574;-67
2023/10/18 09:39:39;;;;;;;10.20;6.43;;;21.20;55.60;;;;;;5032543;28;20678;-66
2023/10/18 09:42:15;;;;;;;7.43;5.87;;;21.10;56.10;;;;;;5031590;28;20159;-67
2023/10/18 09:44:41;;;;;;;8.60;5.90;;;21.10;55.50;;;;;;5032085;28;20417;-65
2023/10/18 09:47:08;;;;;;;6.60;5.57;;;21.20;55.60;;;;;;5032102;28;20402;-67
2023/10/18 09:49:34;;;;;;;7.00;5.77;;;21.20;55.60;;;;;;5032055;28;20917;-68
2023/10/18 09:52:03;;;;;;;7.13;5.17;;;21.20;55.60;;;;;;5032203;28;20781;-65
2023/10/18 09:54:34;;;;;;;6.87;5.30;;;21.20;55.60;;;;;;5031831;28;20430;-67
2023/10/18 09:57:02;;;;;;;7.77;5.43;;;21.20;55.60;;;;;;5031826;28;20882;-68
2023/10/18 09:59:31;;;;;;;9.10;5.60;;;21.20;55.60;;;;;;5032123;28;20403;-65
2023/10/18 10:02:07;;;;;;;8.10;5.73;;;21.20;55.60;;;;;;5032469;28;20612;-65
2023/10/18 10:04:38;;;;;;;8.03;5.40;;;21.20;55.60;;;;;;5032702;28;20434;-66
2023/10/18 10:09:49;;;;;;;8.73;5.03;;;21.20;55.60;;;;;;5031945;28;20773;-67
2023/10/18 10:12:16;;;;;;;10.90;6.20;;;21.20;55.60;;;;;;5031682;28;20406;-66
2023/10/18 10:14:42;;;;;;;7.20;5.60;;;21.10;55.60;;;;;;5032128;28;20460;-67
2023/10/18 10:17:18;;;;;;;8.40;5.50;;;21.20;55.70;;;;;;5031973;28;20917;-67
2023/10/18 10:19:50;;;;;;;6.87;5.87;;;21.20;55.80;;;;;;5032114;28;20237;-67
2023/10/18 10:22:17;;;;;;;8.60;6.07;;;21.20;55.80;;;;;;5032072;28;20418;-66
2023/10/18 10:24:45;;;;;;;6.03;5.20;;;21.20;55.80;;;;;;5031432;28;20426;-66
2023/10/18 10:32:54;;;;;;;7.87;4.80;;;21.20;55.90;;;;;;5031461;28;20403;-68
2023/10/18 10:35:25;;;;;;;7.07;5.00;;;21.20;55.80;;;;;;5031246;28;20456;-67
2023/10/18 10:37:52;;;;;;;6.23;4.93;;;21.20;55.80;;;;;;5031148;28;20406;-68
2023/10/18 10:43:03;;;;;;;7.60;5.43;;;21.20;55.70;;;;;;5031360;28;20407;-66
2023/10/18 10:45:35;;;;;;;6.57;5.07;;;21.20;55.70;;;;;;5030992;28;20434;-67
2023/10/18 10:48:37;;;;;;;7.93;6.13;;;21.20;55.60;;;;;;5031418;28;20401;-66
2023/10/18 10:51:08;;;;;;;9.77;6.07;;;21.20;55.60;;;;;;5030809;28;20435;-66
2023/10/18 10:53:48;;;;;;;8.00;5.43;;;21.20;55.60;;;;;;5034030;28;20406;-67
2023/10/18 10:56:23;;;;;;;14.67;8.00;;;21.20;55.70;;;;;;5035721;28;20394;-65
2023/10/18 10:59:02;;;;;;;13.23;7.07;;;21.20;55.90;;;;;;5035687;28;20775;-67
2023/10/18 11:01:43;;;;;;;18.43;8.03;;;21.20;55.90;;;;;;5035389;28;20548;-66
2023/10/18 11:04:57;;;;;;;13.57;8.57;;;21.20;56.00;;;;;;5035796;28;20987;-66
2023/10/18 11:07:25;;;;;;;13.10;7.33;;;21.20;55.90;;;;;;5035229;28;20406;-66
2023/10/18 11:10:02;;;;;;;13.67;7.73;;;21.20;55.80;;;;;;5035006;28;20414;-68
2023/10/18 11:12:29;;;;;;;11.13;7.90;;;21.20;55.80;;;;;;5035107;28;20393;-66
2023/10/18 11:14:55;;;;;;;11.50;7.70;;;21.20;55.80;;;;;;5034710;28;20465;-65
2023/10/18 11:17:23;;;;;;;11.57;7.67;;;21.30;55.80;;;;;;5034838;28;20941;-67
2023/10/18 11:19:53;;;;;;;13.30;9.40;;;21.30;55.70;;;;;;5034562;28;20195;-67
2023/10/18 11:22:21;;;;;;;14.73;8.80;;;21.30;55.80;;;;;;5033493;28;20514;-66
2023/10/18 11:24:51;;;;;;;23.67;11.63;;;21.30;55.90;;;;;;5035166;28;20441;-65
2023/10/18 11:27:33;;;;;;;18.80;12.03;;;21.30;56.00;;;;;;5034557;28;20834;-65
2023/10/18 11:30:15;;;;;;;15.90;11.60;;;21.30;56.00;;;;;;5034049;28;20745;-68
2023/10/18 11:32:43;;;;;;;19.73;11.67;;;21.30;56.00;;;;;;5034380;28;20413;-65
2023/10/18 11:35:09;;;;;;;24.13;12.23;;;21.30;56.00;;;;;;5034286;28;20438;-67
2023/10/18 11:37:37;;;;;;;19.33;13.63;;;21.30;56.00;;;;;;5049874;28;21001;-66
2023/10/18 11:40:18;;;;;;;19.73;13.40;;;21.30;56.00;;;;;;5053004;28;20747;-66
2023/10/18 11:43:07;;;;;;;24.50;12.43;;;21.40;56.00;;;;;;5052653;28;20425;-66
2023/10/18 11:45:33;;;;;;;23.73;12.00;;;21.40;56.00;;;;;;5054213;28;20453;-66
2023/10/18 11:48:02;;;;;;;20.17;12.67;;;21.30;55.90;;;;;;5054084;28;20818;-67
2023/10/18 11:50:41;;;;;;;16.80;11.30;;;21.30;55.90;;;;;;5054278;28;20471;-67
2023/10/18 11:53:09;;;;;;;26.43;12.73;;;21.30;55.90;;;;;;5053673;28;20409;-67
2023/10/18 11:55:37;;;;;;;17.83;11.80;;;21.40;55.90;;;;;;5052579;28;20457;-66
2023/10/18 11:58:09;;;;;;;19.20;10.63;;;21.30;55.80;;;;;;5053676;28;20417;-65
2023/10/18 12:00:38;;;;;;;12.30;8.73;;;21.40;55.90;;;;;;5053517;28;20460;-67
2023/10/18 12:03:05;;;;;;;12.27;9.10;;;21.40;55.80;;;;;;5053429;28;20449;-67
2023/10/18 12:05:31;;;;;;;13.10;8.10;;;21.30;55.70;;;;;;5052897;28;20530;-66
2023/10/18 12:08:05;;;;;;;19.10;9.40;;;21.40;55.70;;;;;;5038166;28;20426;-68
2023/10/18 12:10:36;;;;;;;17.57;10.63;;;21.40;55.70;;;;;;5033548;28;20468;-67
2023/10/18 12:13:06;;;;;;;20.10;10.20;;;21.40;55.70;;;;;;5033299;28;20387;-67
2023/10/18 12:15:33;;;;;;;16.30;9.87;;;21.30;55.60;;;;;;5033153;28;20900;-66
2023/10/18 12:18:03;;;;;;;15.63;10.67;;;21.30;55.60;;;;;;5034175;28;20437;-64
2023/10/18 12:20:35;;;;;;;14.13;9.57;;;21.30;55.50;;;;;;5033043;28;20887;-65
2023/10/18 12:23:10;;;;;;;13.80;8.70;;;21.40;55.60;;;;;;5033069;28;20407;-67
2023/10/18 12:25:38;;;;;;;16.90;9.73;;;21.40;55.60;;;;;;5032970;28;20421;-67
2023/10/18 12:28:10;;;;;;;20.53;9.40;;;21.30;55.50;;;;;;5033014;28;20415;-66
2023/10/18 12:30:41;;;;;;;16.63;10.57;;;21.30;55.50;;;;;;5033286;28;20457;-67
2023/10/18 12:33:14;;;;;;;15.30;8.17;;;21.30;55.50;;;;;;5032840;28;20425;-66
2023/10/18 12:35:40;;;;;;;15.70;9.10;;;21.40;55.60;;;;;;5047087;28;20441;-66
2023/10/18 12:38:14;;;;;;;13.47;9.03;;;21.30;55.50;;;;;;5052909;28;20449;-64
2023/10/18 12:40:52;;;;;;;14.83;9.00;;;21.40;55.60;;;;;;5051920;28;20463;-66
2023/10/18 12:43:19;;;;;;;13.03;8.33;;;21.40;55.70;;;;;;5052598;28;20385;-67
2023/10/18 12:45:51;;;;;;;13.87;9.57;;;21.40;55.70;;;;;;5052489;28;20936;-67
2023/10/18 12:48:23;;;;;;;12.70;8.37;;;21.40;55.70;;;;;;5052574;28;20740;-68
2023/10/18 12:50:53;;;;;;;12.50;7.47;;;21.30;55.60;;;;;;5052449;28;20475;-66
2023/10/18 12:56:16;;;;;;;13.63;8.00;;;21.40;55.70;;;;;;5032742;28;20434;-64
2023/10/18 12:58:48;;;;;;;12.77;7.90;;;21.30;55.70;;;;;;5044325;28;20935;-66
2023/10/18 13:01:14;;;;;;;11.40;8.17;;;21.30;55.70;;;;;;5065547;28;20464;-67
2023/10/18 13:03:56;;;;;;;13.20;8.93;;;21.30;55.70;;;;;;5053458;28;20417;-67
2023/10/18 13:06:30;;;;;;;11.73;7.70;;;21.30;55.70;;;;;;5041568;28;20413;-67
2023/10/18 13:14:54;;;;;;;11.17;7.90;;;21.30;55.70;;;;;;5052212;28;20923;-67
2023/10/18 13:17:04;;;;;;;12.03;8.67;;;21.40;55.80;;;;;;5038092;28;20438;-67
2023/10/18 13:19:30;;;;;;;13.10;6.40;;;21.30;55.70;;;;;;5031882;28;20888;-67
2023/10/18 13:21:56;;;;;;;13.20;7.53;;;21.30;55.70;;;;;;5042276;28;20504;-67
2023/10/18 13:26:48;;;;;;;12.47;6.77;;;21.30;55.70;;;;;;5070850;28;20166;-65
2023/10/18 13:31:51;;;;;;;10.47;6.80;;;21.30;55.70;;;;;;5032074;28;20493;-68
2023/10/18 13:34:18;;;;;;;7.90;6.20;;;21.30;55.70;;;;;;5031756;28;20580;-67
2023/10/18 13:36:54;;;;;;;12.23;7.90;;;21.30;55.70;;;;;;5031641;28;20418;-66
2023/10/18 13:39:23;;;;;;;12.70;7.67;;;21.40;55.80;;;;;;5032478;28;20441;-68
2023/10/18 13:41:49;;;;;;;8.47;6.70;;;21.30;55.70;;;;;;5031509;28;20860;-66
2023/10/18 13:44:20;;;;;;;11.67;6.53;;;21.30;55.70;;;;;;5050383;28;21027;-66
2023/10/18 13:46:47;;;;;;;10.50;6.97;;;21.40;55.80;;;;;;5051409;28;20405;-68
2023/10/18 13:49:13;;;;;;;9.27;5.93;;;21.30;55.70;;;;;;5051405;28;20754;-69
2023/10/18 13:51:41;;;;;;;9.73;6.50;;;21.30;55.70;;;;;;5050056;28;20487;-67